Time;durP1;ratioP1;P1;durP2;ratioP2;P2;SDS_P1;SDS_P2;PMS_P1;PMS_P2;Temp;Humidity;BMP_temperature;BMP_pressure;BME280_temperature;BME280_humidity;BME280_pressure;Samples;Min_cycle;Max_cycle;Signal;HPM_P1;HPM_P2
2022/09/08 00:01:17;;;;;;;;;;;16.30;99.90;;;;;;5057536;28;19986;-69
2022/09/08 00:03:43;;;;;;;;;;;16.30;99.90;;;;;;5059503;28;19920;-69
2022/09/08 00:06:11;;;;;;;;;;;16.40;99.90;;;;;;5055260;28;19916;-69
2022/09/08 00:08:37;;;;;;;;;;;16.50;99.90;;;;;;5055772;28;20399;-69
2022/09/08 00:11:05;;;;;;;;;;;16.40;99.90;;;;;;5060381;28;19916;-70
2022/09/08 00:13:31;;;;;;;;;;;16.50;99.90;;;;;;5059707;28;19934;-69
2022/09/08 00:15:57;;;;;;;;;;;16.50;99.90;;;;;;5039145;28;19983;-69
2022/09/08 00:18:23;;;;;;;;;;;16.50;99.90;;;;;;5061195;28;20367;-69
2022/09/08 00:20:49;;;;;;;;;;;16.60;99.90;;;;;;5063093;28;19913;-70
2022/09/08 00:23:15;;;;;;;;;;;16.50;99.90;;;;;;5058546;28;19927;-69
2022/09/08 00:25:40;;;;;;;;;;;16.50;99.90;;;;;;5059352;28;19978;-69
2022/09/08 00:28:06;;;;;;;;;;;16.40;99.90;;;;;;5060115;28;19913;-68
2022/09/08 00:30:32;;;;;;;;;;;16.30;99.90;;;;;;5063300;28;20421;-68
2022/09/08 00:32:58;;;;;;;;;;;16.20;99.90;;;;;;5064606;28;19949;-68
2022/09/08 00:35:23;;;;;;;;;;;16.30;99.90;;;;;;5066144;28;19913;-67
2022/09/08 00:37:50;;;;;;;;;;;16.20;99.90;;;;;;5058738;28;19927;-68
2022/09/08 00:40:16;;;;;;;;;;;16.00;99.90;;;;;;5063354;28;19923;-69
2022/09/08 00:42:42;;;;;;;;;;;16.00;99.90;;;;;;5059776;28;20432;-69
2022/09/08 00:45:09;;;;;;;;;;;16.00;99.90;;;;;;5068816;28;19928;-69
2022/09/08 00:47:38;;;;;;;;;;;16.00;99.90;;;;;;5068421;28;19912;-69
2022/09/08 00:50:06;;;;;;;;;;;16.10;99.90;;;;;;5063303;28;19921;-69
2022/09/08 00:52:52;;;;;;;;;;;16.00;99.90;;;;;;5061330;28;20356;-69
2022/09/08 00:55:19;;;;;;;;;;;16.00;99.90;;;;;;5061280;28;19912;-68
2022/09/08 00:57:44;;;;;;;;;;;15.90;99.90;;;;;;5059276;28;19919;-68
2022/09/08 01:00:12;;;;;;;;;;;15.90;99.90;;;;;;5064159;28;19913;-68
2022/09/08 01:02:38;;;;;;;;;;;15.90;99.90;;;;;;5062845;28;19923;-68
2022/09/08 01:05:05;;;;;;;;;;;15.90;99.90;;;;;;5059812;28;19924;-69
2022/09/08 01:13:16;;;;;;;;;;;15.90;99.90;;;;;;5060658;28;20050;-69
2022/09/08 01:15:41;;;;;;;;;;;15.90;99.90;;;;;;5057238;28;19921;-67
2022/09/08 01:18:07;;;;;;;;;;;16.00;99.90;;;;;;5063105;28;19916;-68
2022/09/08 01:20:44;;;;;;;;;;;16.00;99.90;;;;;;5039424;28;19932;-69
2022/09/08 01:23:15;;;;;;;;;;;16.10;99.90;;;;;;5063542;28;20339;-69
2022/09/08 01:25:54;;;;;;;;;;;16.10;99.90;;;;;;5061256;28;19959;-68
2022/09/08 01:28:35;;;;;;;;;;;16.10;99.90;;;;;;5057432;28;19913;-68
2022/09/08 01:31:02;;;;;;;;;;;16.20;99.90;;;;;;5062032;28;19919;-68
2022/09/08 01:33:28;;;;;;;;;;;16.30;99.90;;;;;;5061839;28;19991;-69
2022/09/08 01:35:53;;;;;;;;;;;16.40;99.90;;;;;;5061866;28;20006;-68
2022/09/08 01:38:19;;;;;;;;;;;16.50;99.90;;;;;;5061237;28;19932;-70
2022/09/08 01:40:45;;;;;;;;;;;16.60;99.90;;;;;;5061252;28;19963;-69
2022/09/08 01:43:10;;;;;;;;;;;16.70;99.90;;;;;;5061598;28;19935;-70
2022/09/08 01:45:36;;;;;;;;;;;16.80;99.90;;;;;;5060496;28;19920;-68
2022/09/08 01:48:05;;;;;;;;;;;16.80;99.90;;;;;;5039818;28;19954;-68
2022/09/08 01:50:31;;;;;;;;;;;16.70;99.90;;;;;;5060941;28;19952;-69
2022/09/08 01:52:57;;;;;;;;;;;16.70;99.90;;;;;;5055763;28;20394;-69
2022/09/08 01:55:22;;;;;;;;;;;16.60;99.90;;;;;;5063748;28;20501;-68
2022/09/08 01:57:48;;;;;;;;;;;16.60;99.90;;;;;;5061335;28;19912;-68
2022/09/08 02:00:14;;;;;;;;;;;16.50;99.90;;;;;;5063025;28;20329;-69
2022/09/08 02:02:39;;;;;;;;;;;16.60;99.90;;;;;;5059424;28;19967;-68
2022/09/08 02:05:05;;;;;;;;;;;16.60;99.90;;;;;;5061105;28;20326;-69
2022/09/08 02:07:31;;;;;;;;;;;16.60;99.90;;;;;;5061190;28;20109;-69
2022/09/08 02:09:57;;;;;;;;;;;16.60;99.90;;;;;;5063653;28;19927;-69
2022/09/08 02:12:22;;;;;;;;;;;16.60;99.90;;;;;;5064340;28;19991;-68
2022/09/08 02:14:48;;;;;;;;;;;16.60;99.90;;;;;;5064087;28;19960;-70
2022/09/08 02:17:13;;;;;;;;;;;16.60;99.90;;;;;;5063946;28;20007;-69
2022/09/08 02:19:39;;;;;;;;;;;16.50;99.90;;;;;;5044965;28;20386;-69
2022/09/08 02:22:05;;;;;;;;;;;16.60;99.90;;;;;;5043722;28;20339;-68
2022/09/08 02:24:32;;;;;;;;;;;16.50;99.90;;;;;;5062918;28;20348;-68
2022/09/08 02:26:58;;;;;;;;;;;16.50;99.90;;;;;;5057334;28;19912;-69
2022/09/08 02:29:23;;;;;;;;;;;16.40;99.90;;;;;;5058495;28;20065;-68
2022/09/08 02:31:49;;;;;;;;;;;16.40;99.90;;;;;;5061668;28;21115;-68
2022/09/08 02:34:15;;;;;;;;;;;16.40;99.90;;;;;;5060794;28;19916;-69
2022/09/08 02:36:40;;;;;;;;;;;16.40;99.90;;;;;;5058262;28;20359;-68
2022/09/08 02:39:06;;;;;;;;;;;16.40;99.90;;;;;;5062439;28;19927;-70
2022/09/08 02:41:31;;;;;;;;;;;16.40;99.90;;;;;;5055700;28;20367;-70
2022/09/08 02:43:58;;;;;;;;;;;16.30;99.90;;;;;;5058976;28;19921;-68
2022/09/08 02:46:24;;;;;;;;;;;16.20;99.90;;;;;;5062601;28;19971;-70
2022/09/08 02:48:50;;;;;;;;;;;16.20;99.90;;;;;;5062404;28;20015;-69
2022/09/08 02:51:19;;;;;;;;;;;16.20;99.90;;;;;;5057034;28;20004;-70
2022/09/08 02:53:44;;;;;;;;;;;16.10;99.90;;;;;;5060498;28;19920;-68
2022/09/08 02:56:10;;;;;;;;;;;16.20;99.90;;;;;;5058857;28;19912;-69
2022/09/08 02:58:36;;;;;;;;;;;16.10;99.90;;;;;;5057342;28;19975;-68
2022/09/08 03:01:02;;;;;;;;;;;16.20;99.90;;;;;;5059214;28;19971;-68
2022/09/08 03:03:28;;;;;;;;;;;16.10;99.90;;;;;;5055127;28;19920;-69
2022/09/08 03:05:55;;;;;;;;;;;16.10;99.90;;;;;;5058598;28;20313;-69
2022/09/08 03:08:21;;;;;;;;;;;16.10;99.90;;;;;;5039604;28;19913;-69
2022/09/08 03:10:50;;;;;;;;;;;16.10;99.90;;;;;;5062074;28;20065;-68
2022/09/08 03:13:16;;;;;;;;;;;16.00;99.90;;;;;;5058182;28;19912;-69
2022/09/08 03:15:42;;;;;;;;;;;16.00;99.90;;;;;;5055689;28;20159;-69
2022/09/08 03:18:08;;;;;;;;;;;16.00;99.90;;;;;;5059444;28;19921;-69
2022/09/08 03:20:35;;;;;;;;;;;16.00;99.90;;;;;;5056916;28;19966;-69
2022/09/08 03:23:00;;;;;;;;;;;16.00;99.90;;;;;;5059458;28;19928;-68
2022/09/08 03:25:26;;;;;;;;;;;16.00;99.90;;;;;;5058290;28;19913;-70
2022/09/08 03:27:52;;;;;;;;;;;16.00;99.90;;;;;;5057794;28;20414;-70
2022/09/08 03:30:17;;;;;;;;;;;15.90;99.90;;;;;;5057883;28;19919;-69
2022/09/08 03:32:45;;;;;;;;;;;15.90;99.90;;;;;;5056500;28;20300;-68
2022/09/08 03:35:11;;;;;;;;;;;16.00;99.90;;;;;;5057720;28;19916;-68
2022/09/08 03:37:40;;;;;;;;;;;16.00;99.90;;;;;;5063130;28;20272;-68
2022/09/08 03:40:07;;;;;;;;;;;15.90;99.90;;;;;;5061911;28;20267;-68
2022/09/08 03:42:34;;;;;;;;;;;15.80;99.90;;;;;;5057914;28;20182;-69
2022/09/08 03:45:00;;;;;;;;;;;15.90;99.90;;;;;;5058795;28;19912;-68
2022/09/08 03:47:26;;;;;;;;;;;15.80;99.90;;;;;;5064577;28;20390;-69
2022/09/08 03:49:51;;;;;;;;;;;15.70;99.90;;;;;;5069118;28;19913;-68
2022/09/08 03:52:17;;;;;;;;;;;15.70;99.90;;;;;;5042404;28;20014;-69
2022/09/08 03:54:48;;;;;;;;;;;15.70;99.90;;;;;;5064235;28;20084;-69
2022/09/08 03:57:15;;;;;;;;;;;15.60;99.90;;;;;;5058348;28;19916;-69
2022/09/08 03:59:41;;;;;;;;;;;15.50;99.90;;;;;;5041994;28;20152;-68
2022/09/08 04:02:07;;;;;;;;;;;15.40;99.90;;;;;;5063924;28;19912;-69
2022/09/08 04:04:33;;;;;;;;;;;15.40;99.90;;;;;;5063364;28;20303;-68
2022/09/08 04:06:58;;;;;;;;;;;15.30;99.90;;;;;;5062703;28;19917;-68
2022/09/08 04:09:24;;;;;;;;;;;15.30;99.90;;;;;;5044755;28;20290;-69
2022/09/08 04:11:52;;;;;;;;;;;15.40;99.90;;;;;;5061469;28;20034;-70
2022/09/08 04:14:18;;;;;;;;;;;15.30;99.90;;;;;;5060524;28;19917;-69
2022/09/08 04:16:44;;;;;;;;;;;15.20;99.90;;;;;;5062507;28;20411;-69
2022/09/08 04:19:11;;;;;;;;;;;15.20;99.90;;;;;;5058380;28;20007;-68
2022/09/08 04:21:36;;;;;;;;;;;15.30;99.90;;;;;;5039191;28;20351;-68
2022/09/08 04:24:02;;;;;;;;;;;15.20;99.90;;;;;;5063341;28;20359;-68
2022/09/08 04:26:28;;;;;;;;;;;15.20;99.90;;;;;;5063294;28;19912;-68
2022/09/08 04:28:53;;;;;;;;;;;15.10;99.90;;;;;;5063108;28;19912;-68
2022/09/08 04:31:19;;;;;;;;;;;15.20;99.90;;;;;;5045832;28;20034;-69
2022/09/08 04:33:45;;;;;;;;;;;15.10;99.90;;;;;;5060647;28;19916;-68
2022/09/08 04:36:12;;;;;;;;;;;15.10;99.90;;;;;;5044747;28;19921;-69
2022/09/08 04:38:38;;;;;;;;;;;15.10;99.90;;;;;;5065638;28;20051;-68
2022/09/08 04:41:04;;;;;;;;;;;15.10;99.90;;;;;;5037518;28;19999;-68
2022/09/08 04:43:30;;;;;;;;;;;15.10;99.90;;;;;;5065787;28;19954;-68
2022/09/08 04:45:59;;;;;;;;;;;15.10;99.90;;;;;;5060260;28;20018;-68
2022/09/08 04:48:25;;;;;;;;;;;15.10;99.90;;;;;;5065195;28;20145;-69
2022/09/08 04:50:53;;;;;;;;;;;15.20;99.90;;;;;;5060635;28;20353;-68
2022/09/08 04:53:19;;;;;;;;;;;15.20;99.90;;;;;;5064908;28;19912;-69
2022/09/08 04:55:44;;;;;;;;;;;15.20;99.90;;;;;;5061839;28;20279;-68
2022/09/08 04:58:10;;;;;;;;;;;15.20;99.90;;;;;;5060754;28;20426;-69
2022/09/08 05:00:37;;;;;;;;;;;15.40;99.90;;;;;;5058504;28;19987;-69
2022/09/08 05:03:02;;;;;;;;;;;15.50;99.90;;;;;;5063806;28;19924;-68
2022/09/08 05:05:28;;;;;;;;;;;15.50;99.90;;;;;;5065191;28;19936;-69
2022/09/08 05:07:53;;;;;;;;;;;15.50;99.90;;;;;;5060945;28;19934;-68
2022/09/08 05:10:19;;;;;;;;;;;15.40;99.90;;;;;;5062924;28;20377;-69
2022/09/08 05:12:44;;;;;;;;;;;15.40;99.90;;;;;;5060379;28;19956;-68
2022/09/08 05:15:10;;;;;;;;;;;15.60;99.90;;;;;;5067708;28;19916;-69
2022/09/08 05:17:36;;;;;;;;;;;15.60;99.90;;;;;;5065703;28;19912;-69
2022/09/08 05:20:01;;;;;;;;;;;15.60;99.90;;;;;;5066584;28;19912;-70
2022/09/08 05:22:27;;;;;;;;;;;15.60;99.90;;;;;;5063195;28;19917;-68
2022/09/08 05:24:53;;;;;;;;;;;15.60;99.90;;;;;;5067813;28;19930;-68
2022/09/08 05:27:19;;;;;;;;;;;15.60;99.90;;;;;;5069657;28;19944;-68
2022/09/08 05:29:44;;;;;;;;;;;15.60;99.90;;;;;;5067158;28;19975;-69
2022/09/08 05:32:10;;;;;;;;;;;15.70;99.90;;;;;;5069337;28;19963;-69
2022/09/08 05:34:35;;;;;;;;;;;15.60;99.90;;;;;;5068165;28;20414;-70
2022/09/08 05:37:01;;;;;;;;;;;15.70;99.90;;;;;;5068978;28;19912;-69
2022/09/08 05:39:26;;;;;;;;;;;15.70;99.90;;;;;;5040955;28;20306;-69
2022/09/08 05:41:52;;;;;;;;;;;15.80;99.90;;;;;;5045891;28;20364;-69
2022/09/08 05:44:18;;;;;;;;;;;15.80;99.90;;;;;;5063876;28;20366;-69
2022/09/08 05:46:43;;;;;;;;;;;16.00;99.90;;;;;;5061591;28;19924;-69
2022/09/08 05:49:09;;;;;;;;;;;16.00;99.90;;;;;;5068444;28;19909;-69
2022/09/08 05:51:34;;;;;;;;;;;16.10;99.90;;;;;;5065951;28;20117;-68
2022/09/08 05:54:00;;;;;;;;;;;16.00;99.90;;;;;;5050686;28;19995;-69
2022/09/08 05:56:26;;;;;;;;;;;16.10;99.90;;;;;;5067969;28;19908;-69
2022/09/08 05:58:52;;;;;;;;;;;16.10;99.90;;;;;;5065155;28;19913;-69
2022/09/08 06:01:18;;;;;;;;;;;16.10;99.90;;;;;;5063401;28;20387;-69
2022/09/08 06:03:44;;;;;;;;;;;16.20;99.90;;;;;;5065190;28;19928;-69
2022/09/08 06:06:10;;;;;;;;;;;16.30;99.90;;;;;;5067951;28;19913;-69
2022/09/08 06:08:37;;;;;;;;;;;16.40;99.90;;;;;;5066945;28;19992;-71
2022/09/08 06:11:03;;;;;;;;;;;16.50;99.90;;;;;;5061619;28;20208;-69
2022/09/08 06:13:30;;;;;;;;;;;16.50;99.90;;;;;;5049002;28;20367;-69
2022/09/08 06:16:15;;;;;;;;;;;16.60;99.90;;;;;;5059671;28;20010;-69
2022/09/08 06:18:42;;;;;;;;;;;16.70;99.90;;;;;;5062879;28;20001;-69
2022/09/08 06:21:12;;;;;;;;;;;16.70;99.90;;;;;;5042110;28;19916;-68
2022/09/08 06:23:38;;;;;;;;;;;16.70;99.90;;;;;;5064745;28;20021;-69
2022/09/08 06:26:19;;;;;;;;;;;16.80;99.90;;;;;;5063008;28;19920;-69
2022/09/08 06:28:48;;;;;;;;;;;16.80;99.90;;;;;;5066155;28;20403;-70
2022/09/08 06:31:16;;;;;;;;;;;16.70;99.90;;;;;;5057066;28;19972;-69
2022/09/08 06:33:42;;;;;;;;;;;16.70;99.90;;;;;;5056326;28;20293;-70
2022/09/08 06:36:12;;;;;;;;;;;16.70;99.90;;;;;;5060668;28;19927;-68
2022/09/08 06:38:42;;;;;;;;;;;16.70;99.90;;;;;;5058733;28;19912;-68
2022/09/08 06:41:10;;;;;;;;;;;16.70;99.90;;;;;;5064072;28;20628;-70
2022/09/08 06:43:42;;;;;;;;;;;16.70;99.90;;;;;;5040623;28;19924;-69
2022/09/08 06:46:20;;;;;;;;;;;16.80;99.90;;;;;;5066673;28;19920;-68
2022/09/08 06:48:46;;;;;;;;;;;16.70;99.90;;;;;;5064376;28;19919;-69
2022/09/08 06:51:35;;;;;;;;;;;16.70;99.90;;;;;;5062799;28;19913;-70
2022/09/08 06:54:10;;;;;;;;;;;16.80;99.90;;;;;;5042366;28;19923;-69
2022/09/08 06:56:51;;;;;;;;;;;16.80;99.90;;;;;;5063110;28;19916;-70
2022/09/08 06:59:16;;;;;;;;;;;16.80;99.90;;;;;;5064017;28;19939;-69
2022/09/08 07:01:52;;;;;;;;;;;16.80;99.90;;;;;;5065554;28;19913;-69
2022/09/08 07:04:30;;;;;;;;;;;16.70;99.90;;;;;;5049377;28;19921;-70
2022/09/08 07:07:11;;;;;;;;;;;16.60;99.90;;;;;;5059508;28;20396;-69
2022/09/08 07:09:52;;;;;;;;;;;16.70;99.90;;;;;;5063147;28;19995;-70
2022/09/08 07:12:40;;;;;;;;;;;16.70;99.90;;;;;;5063081;28;19912;-69
2022/09/08 07:15:25;;;;;;;;;;;16.80;99.90;;;;;;5062541;28;19919;-69
2022/09/08 07:17:58;;;;;;;;;;;16.90;99.90;;;;;;5062437;28;20417;-69
2022/09/08 07:20:25;;;;;;;;;;;16.90;99.90;;;;;;5055218;28;19919;-69
2022/09/08 07:22:55;;;;;;;;;;;16.90;99.90;;;;;;5052347;28;19921;-69
2022/09/08 07:25:39;;;;;;;;;;;17.00;99.90;;;;;;5058025;28;19920;-69
2022/09/08 07:28:10;;;;;;;;;;;17.00;99.90;;;;;;5053617;28;20314;-69
2022/09/08 07:30:36;;;;;;;;;;;17.10;99.90;;;;;;5060211;28;19917;-70
2022/09/08 07:33:14;;;;;;;;;;;17.20;99.90;;;;;;5060065;28;20228;-69
2022/09/08 07:35:40;;;;;;;;;;;17.30;99.90;;;;;;5071643;28;19943;-69
2022/09/08 07:38:10;;;;;;;;;;;17.30;99.90;;;;;;5044961;28;19947;-69
2022/09/08 07:40:41;;;;;;;;;;;17.60;99.90;;;;;;5045347;28;19956;-70
2022/09/08 07:43:11;;;;;;;;;;;17.70;99.90;;;;;;5059323;28;19931;-69
2022/09/08 07:45:48;;;;;;;;;;;18.00;99.90;;;;;;5071364;28;19947;-69
2022/09/08 07:48:34;;;;;;;;;;;18.10;99.90;;;;;;5062400;28;20292;-68
2022/09/08 07:51:05;;;;;;;;;;;18.30;99.90;;;;;;5068019;28;19919;-69
2022/09/08 07:53:33;;;;;;;;;;;18.50;99.90;;;;;;5068755;28;19919;-69
2022/09/08 07:56:10;;;;;;;;;;;18.60;99.90;;;;;;5045637;28;20283;-69
2022/09/08 07:58:44;;;;;;;;;;;18.60;99.90;;;;;;5064935;28;19947;-69
2022/09/08 08:01:12;;;;;;;;;;;18.70;99.90;;;;;;5064881;28;19919;-69
2022/09/08 08:03:45;;;;;;;;;;;18.70;99.90;;;;;;5069663;28;20011;-69
2022/09/08 08:06:34;;;;;;;;;;;18.70;99.90;;;;;;5068029;28;20379;-69
2022/09/08 08:09:03;;;;;;;;;;;18.70;99.90;;;;;;5055652;28;19917;-69
2022/09/08 08:11:40;;;;;;;;;;;18.70;99.90;;;;;;5069750;28;19913;-69
2022/09/08 08:14:09;;;;;;;;;;;18.50;99.90;;;;;;5061757;28;20003;-68
2022/09/08 08:16:41;;;;;;;;;;;18.40;99.90;;;;;;5069179;28;20031;-68
2022/09/08 08:19:22;;;;;;;;;;;18.40;99.90;;;;;;5069759;28;19917;-69
2022/09/08 08:21:52;;;;;;;;;;;18.40;99.90;;;;;;5068630;28;19912;-69
2022/09/08 08:24:36;;;;;;;;;;;18.50;99.90;;;;;;5051806;28;19931;-68
2022/09/08 08:27:06;;;;;;;;;;;18.60;99.90;;;;;;5058293;28;19916;-69
2022/09/08 08:29:31;;;;;;;;;;;18.60;99.90;;;;;;5070717;28;19921;-69
2022/09/08 08:32:09;;;;;;;;;;;18.60;99.90;;;;;;5069189;28;19913;-69
2022/09/08 08:34:45;;;;;;;;;;;18.80;99.90;;;;;;5068011;28;20018;-69
2022/09/08 08:37:17;;;;;;;;;;;18.80;99.90;;;;;;5075554;28;19912;-70
2022/09/08 08:39:45;;;;;;;;;;;18.70;99.90;;;;;;5070433;28;19913;-69
2022/09/08 08:42:14;;;;;;;;;;;18.70;99.90;;;;;;5050057;28;19921;-70
2022/09/08 08:44:58;;;;;;;;;;;18.60;99.90;;;;;;5072232;28;19943;-68
2022/09/08 08:47:40;;;;;;;;;;;18.50;99.90;;;;;;5068165;28;19912;-70
2022/09/08 08:50:24;;;;;;;;;;;18.60;99.90;;;;;;5069683;28;19912;-70
2022/09/08 08:53:08;;;;;;;;;;;18.70;99.90;;;;;;5057860;28;19935;-70
2022/09/08 08:55:55;;;;;;;;;;;18.80;99.90;;;;;;5069025;28;20359;-69
2022/09/08 08:58:30;;;;;;;;;;;18.90;99.90;;;;;;5070653;28;19919;-69
2022/09/08 09:00:59;;;;;;;;;;;19.20;99.90;;;;;;5065747;28;19998;-70
2022/09/08 09:03:39;;;;;;;;;;;19.20;99.90;;;;;;5071833;28;19928;-69
2022/09/08 09:06:23;;;;;;;;;;;19.30;99.90;;;;;;5054863;28;20287;-68
2022/09/08 09:09:08;;;;;;;;;;;19.70;99.90;;;;;;5071876;28;19919;-69
2022/09/08 09:11:39;;;;;;;;;;;19.80;99.90;;;;;;5074225;28;19927;-68
2022/09/08 09:14:11;;;;;;;;;;;19.80;99.90;;;;;;5056341;28;20318;-69
2022/09/08 09:16:55;;;;;;;;;;;20.10;99.90;;;;;;5074209;28;19958;-70
2022/09/08 09:19:23;;;;;;;;;;;20.20;99.90;;;;;;5072846;28;19924;-69
2022/09/08 09:21:52;;;;;;;;;;;20.50;99.90;;;;;;5073005;28;20394;-69
2022/09/08 09:24:36;;;;;;;;;;;20.60;99.90;;;;;;5071776;28;20011;-69
2022/09/08 09:27:10;;;;;;;;;;;20.40;99.90;;;;;;5055091;28;19966;-70
2022/09/08 09:29:36;;;;;;;;;;;20.50;99.90;;;;;;5073392;28;20036;-69
2022/09/08 09:32:05;;;;;;;;;;;20.60;99.90;;;;;;5068971;28;20391;-69
2022/09/08 09:34:42;;;;;;;;;;;20.80;99.90;;;;;;5072868;28;19909;-69
2022/09/08 09:37:08;;;;;;;;;;;21.10;99.90;;;;;;5073981;28;19909;-70
2022/09/08 09:39:39;;;;;;;;;;;21.20;99.90;;;;;;5072564;28;20329;-69
2022/09/08 09:42:20;;;;;;;;;;;21.20;99.90;;;;;;5055528;28;19918;-69
2022/09/08 09:45:00;;;;;;;;;;;21.00;99.90;;;;;;5073419;28;20240;-69
2022/09/08 09:47:29;;;;;;;;;;;20.90;99.90;;;;;;5072815;28;19913;-69
2022/09/08 09:50:01;;;;;;;;;;;20.80;99.90;;;;;;5054420;28;19924;-69
2022/09/08 09:52:31;;;;;;;;;;;20.70;99.90;;;;;;5073201;28;19999;-69
2022/09/08 09:54:57;;;;;;;;;;;20.80;99.90;;;;;;5072745;28;19912;-69
2022/09/08 09:57:45;;;;;;;;;;;20.90;99.90;;;;;;5071107;28;20379;-69
2022/09/08 10:00:20;;;;;;;;;;;20.80;99.90;;;;;;5068926;28;19923;-70
2022/09/08 10:03:05;;;;;;;;;;;20.80;99.90;;;;;;5073573;28;19963;-69
2022/09/08 10:05:30;;;;;;;;;;;21.10;99.90;;;;;;5073458;28;19921;-69
2022/09/08 10:07:56;;;;;;;;;;;21.30;99.90;;;;;;5072524;28;19912;-69
2022/09/08 10:10:21;;;;;;;;;;;21.30;99.90;;;;;;5073215;28;19924;-70
2022/09/08 10:13:05;;;;;;;;;;;21.30;99.90;;;;;;5072187;28;20034;-69
2022/09/08 10:15:51;;;;;;;;;;;21.50;99.90;;;;;;5068736;28;20358;-70
2022/09/08 10:18:46;;;;;;;;;;;21.40;99.90;;;;;;5066167;28;20470;-69
2022/09/08 10:21:30;;;;;;;;;;;21.40;99.90;;;;;;5002954;28;19959;-69
2022/09/08 10:24:14;;;;;;;;;;;21.40;99.90;;;;;;5068582;28;20057;-70
2022/09/08 10:26:49;;;;;;;;;;;21.20;99.90;;;;;;5071118;28;19916;-69
2022/09/08 10:29:35;;;;;;;;;;;21.20;99.90;;;;;;5073165;28;19919;-68
2022/09/08 10:32:14;;;;;;;;;;;21.00;99.90;;;;;;5072651;28;19924;-69
2022/09/08 10:34:58;;;;;;;;;;;20.90;99.90;;;;;;5072048;28;20325;-69
2022/09/08 10:37:33;;;;;;;;;;;20.90;99.90;;;;;;5073351;28;19912;-69
2022/09/08 10:40:17;;;;;;;;;;;20.70;99.90;;;;;;5071543;28;19912;-69
2022/09/08 10:42:45;;;;;;;;;;;20.60;99.90;;;;;;5072898;28;19955;-68
2022/09/08 10:45:21;;;;;;;;;;;20.20;99.90;;;;;;5065334;28;20003;-69
2022/09/08 10:48:05;;;;;;;;;;;20.10;99.90;;;;;;5062523;28;20014;-69
2022/09/08 10:50:31;;;;;;;;;;;20.00;99.90;;;;;;5067720;28;19918;-70
2022/09/08 10:53:18;;;;;;;;;;;20.20;99.90;;;;;;5065609;28;19920;-70
2022/09/08 10:55:46;;;;;;;;;;;20.50;99.90;;;;;;5067548;28;20437;-70
2022/09/08 10:58:21;;;;;;;;;;;20.70;99.90;;;;;;5048485;28;19956;-69
2022/09/08 11:00:56;;;;;;;;;;;20.90;99.90;;;;;;5067079;28;19913;-69
2022/09/08 11:03:22;;;;;;;;;;;21.00;99.90;;;;;;5069315;28;19924;-71
2022/09/08 11:06:08;;;;;;;;;;;21.00;99.90;;;;;;5067988;28;19913;-69
2022/09/08 11:08:37;;;;;;;;;;;20.90;99.90;;;;;;5050951;28;19916;-70
2022/09/08 11:11:21;;;;;;;;;;;20.90;99.90;;;;;;5069095;28;19913;-70
2022/09/08 11:13:53;;;;;;;;;;;21.10;99.90;;;;;;5060156;28;19978;-70
2022/09/08 11:16:27;;;;;;;;;;;21.10;99.90;;;;;;5068271;28;19955;-69
2022/09/08 11:19:19;;;;;;;;;;;21.30;99.90;;;;;;5053369;28;19908;-70
2022/09/08 11:22:03;;;;;;;;;;;21.20;99.90;;;;;;5038903;28;19919;-69
2022/09/08 11:24:34;;;;;;;;;;;20.80;99.90;;;;;;5065329;28;20308;-68
2022/09/08 11:27:20;;;;;;;;;;;20.30;99.90;;;;;;5063495;28;19925;-68
2022/09/08 11:30:03;;;;;;;;;;;20.10;99.90;;;;;;5064103;28;19916;-69
2022/09/08 11:32:38;;;;;;;;;;;20.00;99.90;;;;;;5053809;28;20379;-68
2022/09/08 11:35:17;;;;;;;;;;;19.80;99.90;;;;;;5065153;28;19909;-69
2022/09/08 11:37:44;;;;;;;;;;;19.70;99.90;;;;;;5064208;28;19916;-70
2022/09/08 11:40:27;;;;;;;;;;;19.80;99.90;;;;;;5048581;28;20413;-70
2022/09/08 11:43:11;;;;;;;;;;;20.10;99.90;;;;;;5070712;28;19913;-69
2022/09/08 11:45:48;;;;;;;;;;;20.50;99.90;;;;;;5072032;28;20272;-69
2022/09/08 11:48:33;;;;;;;;;;;20.70;99.90;;;;;;5068340;28;19912;-69
2022/09/08 11:51:24;;;;;;;;;;;21.00;99.90;;;;;;5048319;28;19909;-70
2022/09/08 11:53:49;;;;;;;;;;;21.20;99.90;;;;;;5059109;28;19962;-69
2022/09/08 11:56:35;;;;;;;;;;;21.50;99.90;;;;;;5067322;28;19920;-70
2022/09/08 11:59:21;;;;;;;;;;;21.70;99.90;;;;;;5026447;28;20003;-70
2022/09/08 12:01:59;;;;;;;;;;;21.70;99.90;;;;;;5071553;28;20021;-70
2022/09/08 12:04:31;;;;;;;;;;;21.80;99.90;;;;;;5059416;28;20312;-69
2022/09/08 12:06:57;;;;;;;;;;;21.60;99.90;;;;;;5070143;28;20300;-70
2022/09/08 12:09:31;;;;;;;;;;;21.80;99.90;;;;;;5072627;28;19917;-69
2022/09/08 12:12:12;;;;;;;;;;;21.70;99.90;;;;;;5055338;28;20050;-69
2022/09/08 12:14:56;;;;;;;;;;;21.90;99.90;;;;;;5073407;28;20363;-69
2022/09/08 12:17:40;;;;;;;;;;;22.20;99.90;;;;;;5070036;28;19913;-70
2022/09/08 12:20:24;;;;;;;;;;;22.10;99.90;;;;;;5064112;28;19932;-69
2022/09/08 12:23:02;;;;;;;;;;;22.10;99.90;;;;;;5072377;28;20003;-68
2022/09/08 12:25:42;;;;;;;;;;;22.00;99.90;;;;;;5073107;28;19916;-69
2022/09/08 12:28:18;;;;;;;;;;;21.40;99.90;;;;;;5070649;28;19974;-69
2022/09/08 12:30:53;;;;;;;;;;;20.70;99.90;;;;;;5072734;28;19977;-69
2022/09/08 12:33:21;;;;;;;;;;;20.10;99.90;;;;;;5068136;28;19964;-69
2022/09/08 12:35:49;;;;;;;;;;;19.90;99.90;;;;;;5075752;28;19913;-70
2022/09/08 12:38:34;;;;;;;;;;;19.90;99.90;;;;;;5073449;28;20351;-69
2022/09/08 12:41:07;;;;;;;;;;;19.90;99.90;;;;;;5026913;28;19919;-69
2022/09/08 12:43:42;;;;;;;;;;;19.80;99.90;;;;;;5072239;28;19955;-70
2022/09/08 12:46:15;;;;;;;;;;;19.90;99.90;;;;;;5065736;28;19928;-69
2022/09/08 12:48:52;;;;;;;;;;;19.80;99.90;;;;;;5070366;28;19957;-70
2022/09/08 12:51:29;;;;;;;;;;;19.50;99.90;;;;;;5044826;28;20355;-69
2022/09/08 12:53:58;;;;;;;;;;;19.00;99.90;;;;;;5070216;28;19920;-71
2022/09/08 12:56:43;;;;;;;;;;;18.10;99.90;;;;;;5054980;28;19912;-71
2022/09/08 12:59:27;;;;;;;;;;;17.80;99.90;;;;;;5064300;28;20003;-73
2022/09/08 13:02:01;;;;;;;;;;;17.80;99.90;;;;;;5070484;28;20379;-71
2022/09/08 13:04:38;;;;;;;;;;;17.80;99.90;;;;;;5045084;28;19931;-71
2022/09/08 13:07:23;;;;;;;;;;;17.80;99.90;;;;;;5069336;28;19912;-70
2022/09/08 13:10:08;;;;;;;;;;;17.90;99.90;;;;;;5069883;28;19916;-71
2022/09/08 13:12:37;;;;;;;;;;;18.00;99.90;;;;;;5034179;28;19916;-70
2022/09/08 13:15:06;;;;;;;;;;;18.10;99.90;;;;;;5069029;28;19939;-70
2022/09/08 13:17:34;;;;;;;;;;;18.20;99.90;;;;;;5064536;28;19913;-71
2022/09/08 13:20:00;;;;;;;;;;;18.40;99.90;;;;;;5068658;28;19932;-71
2022/09/08 13:22:40;;;;;;;;;;;18.40;99.90;;;;;;5067669;28;19930;-71
2022/09/08 13:25:22;;;;;;;;;;;18.60;99.90;;;;;;5069067;28;20010;-70
2022/09/08 13:28:06;;;;;;;;;;;18.80;99.90;;;;;;5071989;28;19912;-70
2022/09/08 13:30:51;;;;;;;;;;;18.80;99.90;;;;;;5070634;28;19917;-71
2022/09/08 13:33:25;;;;;;;;;;;18.80;99.90;;;;;;5066021;28;19913;-69
2022/09/08 13:36:04;;;;;;;;;;;18.90;99.90;;;;;;5071015;28;20345;-69
2022/09/08 13:38:32;;;;;;;;;;;18.70;99.90;;;;;;5070067;28;19913;-70
2022/09/08 13:41:04;;;;;;;;;;;18.70;99.90;;;;;;5054631;28;19919;-69
2022/09/08 13:43:55;;;;;;;;;;;18.70;99.90;;;;;;5067426;28;19917;-69
2022/09/08 13:46:27;;;;;;;;;;;18.70;99.90;;;;;;4998630;28;20359;-69
2022/09/08 13:49:18;;;;;;;;;;;18.80;99.90;;;;;;5053580;28;19986;-69
2022/09/08 13:51:49;;;;;;;;;;;18.60;99.90;;;;;;5050341;28;19912;-68
2022/09/08 13:54:17;;;;;;;;;;;18.60;99.90;;;;;;5066616;28;19912;-69
2022/09/08 13:57:02;;;;;;;;;;;18.80;99.90;;;;;;5067963;28;19912;-69
2022/09/08 13:59:51;;;;;;;;;;;18.70;99.90;;;;;;5039704;28;20017;-68
2022/09/08 14:02:20;;;;;;;;;;;18.80;99.90;;;;;;5062414;28;20463;-68
2022/09/08 14:04:48;;;;;;;;;;;18.80;99.90;;;;;;5067968;28;20375;-68
2022/09/08 14:07:33;;;;;;;;;;;18.90;99.90;;;;;;5069318;28;19913;-68
2022/09/08 14:10:18;;;;;;;;;;;19.10;99.90;;;;;;5066266;28;19934;-69
2022/09/08 14:12:50;;;;;;;;;;;19.50;99.90;;;;;;5069359;28;19916;-68
2022/09/08 14:15:20;;;;;;;;;;;19.70;99.90;;;;;;5067959;28;19940;-69
2022/09/08 14:18:02;;;;;;;;;;;19.70;99.90;;;;;;5068973;28;19917;-69
2022/09/08 14:20:33;;;;;;;;;;;19.80;99.90;;;;;;5066555;28;19920;-69
2022/09/08 14:23:22;;;;;;;;;;;19.90;99.90;;;;;;5069854;28;19920;-68
2022/09/08 14:25:49;;;;;;;;;;;20.10;99.90;;;;;;5044305;28;19920;-68
2022/09/08 14:28:17;;;;;;;;;;;20.20;99.90;;;;;;5037883;28;19913;-69
2022/09/08 14:30:45;;;;;;;;;;;20.30;99.90;;;;;;5064212;28;20410;-68
2022/09/08 14:33:24;;;;;;;;;;;20.30;99.90;;;;;;5070030;28;19932;-70
2022/09/08 14:36:10;;;;;;;;;;;20.30;99.90;;;;;;5051475;28;22055;-68
2022/09/08 14:38:36;;;;;;;;;;;20.30;99.90;;;;;;5030677;28;19912;-69
2022/09/08 14:41:05;;;;;;;;;;;20.60;99.90;;;;;;5068051;28;19943;-69
2022/09/08 14:43:42;;;;;;;;;;;20.80;99.90;;;;;;5054507;28;20015;-68
2022/09/08 14:46:26;;;;;;;;;;;20.90;99.90;;;;;;5068914;28;19916;-68
2022/09/08 14:49:10;;;;;;;;;;;21.10;99.90;;;;;;5068731;28;19912;-68